sensor_id;sensor_type;location;lat;lon;timestamp;temperature;humidity
42031;DHT22;27709;52.036;5.906;2023-07-28T00:01:30;19.80;99.90
42031;DHT22;27709;52.036;5.906;2023-07-28T00:03:55;19.80;99.90
42031;DHT22;27709;52.036;5.906;2023-07-28T00:06:23;19.80;99.90
42031;DHT22;27709;52.036;5.906;2023-07-28T00:08:48;19.80;99.90
42031;DHT22;27709;52.036;5.906;2023-07-28T00:11:15;19.80;99.90
42031;DHT22;27709;52.036;5.906;2023-07-28T00:13:42;19.80;99.90
42031;DHT22;27709;52.036;5.906;2023-07-28T00:16:08;19.90;99.90
42031;DHT22;27709;52.036;5.906;2023-07-28T00:18:34;19.90;99.90
42031;DHT22;27709;52.036;5.906;2023-07-28T00:20:59;19.90;99.90
42031;DHT22;27709;52.036;5.906;2023-07-28T00:23:25;19.90;99.90
42031;DHT22;27709;52.036;5.906;2023-07-28T00:25:51;19.90;99.90
42031;DHT22;27709;52.036;5.906;2023-07-28T00:28:16;19.90;99.90
42031;DHT22;27709;52.036;5.906;2023-07-28T00:30:42;19.90;99.90
42031;DHT22;27709;52.036;5.906;2023-07-28T00:33:08;19.90;99.90
42031;DHT22;27709;52.036;5.906;2023-07-28T00:35:33;19.90;99.90
42031;DHT22;27709;52.036;5.906;2023-07-28T00:37:59;19.90;99.90
42031;DHT22;27709;52.036;5.906;2023-07-28T00:40:24;19.80;99.90
42031;DHT22;27709;52.036;5.906;2023-07-28T00:42:50;19.90;99.90
42031;DHT22;27709;52.036;5.906;2023-07-28T00:45:16;19.90;99.90
42031;DHT22;27709;52.036;5.906;2023-07-28T00:47:42;19.90;99.90
42031;DHT22;27709;52.036;5.906;2023-07-28T00:50:10;19.90;99.90
42031;DHT22;27709;52.036;5.906;2023-07-28T00:52:37;19.90;99.90
42031;DHT22;27709;52.036;5.906;2023-07-28T00:55:03;19.90;99.90
42031;DHT22;27709;52.036;5.906;2023-07-28T00:57:28;19.80;99.90
42031;DHT22;27709;52.036;5.906;2023-07-28T00:59:54;19.90;99.90
42031;DHT22;27709;52.036;5.906;2023-07-28T01:02:20;19.90;99.90
42031;DHT22;27709;52.036;5.906;2023-07-28T01:04:47;19.90;99.90
42031;DHT22;27709;52.036;5.906;2023-07-28T01:09:55;19.90;99.90
42031;DHT22;27709;52.036;5.906;2023-07-28T01:12:24;19.90;99.90
42031;DHT22;27709;52.036;5.906;2023-07-28T01:14:49;19.90;99.90
42031;DHT22;27709;52.036;5.906;2023-07-28T01:17:15;19.90;99.90
42031;DHT22;27709;52.036;5.906;2023-07-28T01:19:40;19.90;99.90
42031;DHT22;27709;52.036;5.906;2023-07-28T01:25:01;19.90;99.90
42031;DHT22;27709;52.036;5.906;2023-07-28T01:27:30;19.90;99.90
42031;DHT22;27709;52.036;5.906;2023-07-28T01:29:56;19.80;99.90
42031;DHT22;27709;52.036;5.906;2023-07-28T01:32:22;19.90;99.90
42031;DHT22;27709;52.036;5.906;2023-07-28T01:34:47;19.80;99.90
42031;DHT22;27709;52.036;5.906;2023-07-28T01:37:13;19.80;99.90
42031;DHT22;27709;52.036;5.906;2023-07-28T01:39:38;19.80;99.90
42031;DHT22;27709;52.036;5.906;2023-07-28T01:42:04;19.80;99.90
42031;DHT22;27709;52.036;5.906;2023-07-28T01:44:30;19.80;99.90
42031;DHT22;27709;52.036;5.906;2023-07-28T01:46:55;19.80;99.90
42031;DHT22;27709;52.036;5.906;2023-07-28T01:49:21;19.80;99.90
42031;DHT22;27709;52.036;5.906;2023-07-28T01:51:46;19.80;99.90
42031;DHT22;27709;52.036;5.906;2023-07-28T01:54:12;19.90;99.90
42031;DHT22;27709;52.036;5.906;2023-07-28T01:56:37;19.90;99.90
42031;DHT22;27709;52.036;5.906;2023-07-28T01:59:03;19.90;99.90
42031;DHT22;27709;52.036;5.906;2023-07-28T02:01:29;19.90;99.90
42031;DHT22;27709;52.036;5.906;2023-07-28T02:03:54;19.90;99.90
42031;DHT22;27709;52.036;5.906;2023-07-28T02:06:20;19.90;99.90
42031;DHT22;27709;52.036;5.906;2023-07-28T02:08:45;19.90;99.90
42031;DHT22;27709;52.036;5.906;2023-07-28T02:11:11;19.90;99.90
42031;DHT22;27709;52.036;5.906;2023-07-28T02:13:36;19.90;99.90
42031;DHT22;27709;52.036;5.906;2023-07-28T02:16:02;19.90;99.90
42031;DHT22;27709;52.036;5.906;2023-07-28T02:18:27;19.90;99.90
42031;DHT22;27709;52.036;5.906;2023-07-28T02:20:53;19.80;99.90
42031;DHT22;27709;52.036;5.906;2023-07-28T02:23:19;19.90;99.90
42031;DHT22;27709;52.036;5.906;2023-07-28T02:25:45;19.90;99.90
42031;DHT22;27709;52.036;5.906;2023-07-28T02:28:11;19.90;99.90
42031;DHT22;27709;52.036;5.906;2023-07-28T02:30:37;19.80;99.90
42031;DHT22;27709;52.036;5.906;2023-07-28T02:33:03;19.90;99.90
42031;DHT22;27709;52.036;5.906;2023-07-28T02:35:28;19.90;99.90
42031;DHT22;27709;52.036;5.906;2023-07-28T02:37:54;19.90;99.90
42031;DHT22;27709;52.036;5.906;2023-07-28T02:40:19;19.90;99.90
42031;DHT22;27709;52.036;5.906;2023-07-28T02:42:45;19.90;99.90
42031;DHT22;27709;52.036;5.906;2023-07-28T02:45:11;19.90;99.90
42031;DHT22;27709;52.036;5.906;2023-07-28T02:47:37;19.90;99.90
42031;DHT22;27709;52.036;5.906;2023-07-28T02:50:02;19.90;99.90
42031;DHT22;27709;52.036;5.906;2023-07-28T02:52:28;19.90;99.90
42031;DHT22;27709;52.036;5.906;2023-07-28T02:54:55;20.00;99.90
42031;DHT22;27709;52.036;5.906;2023-07-28T02:57:20;19.90;99.90
42031;DHT22;27709;52.036;5.906;2023-07-28T02:59:46;19.90;99.90
42031;DHT22;27709;52.036;5.906;2023-07-28T03:02:11;19.90;99.90
42031;DHT22;27709;52.036;5.906;2023-07-28T03:04:37;20.00;99.90
42031;DHT22;27709;52.036;5.906;2023-07-28T03:07:03;20.00;99.90
42031;DHT22;27709;52.036;5.906;2023-07-28T03:09:28;20.00;99.90
42031;DHT22;27709;52.036;5.906;2023-07-28T03:11:54;20.00;99.90
42031;DHT22;27709;52.036;5.906;2023-07-28T03:14:20;20.00;99.90
42031;DHT22;27709;52.036;5.906;2023-07-28T03:16:45;20.00;99.90
42031;DHT22;27709;52.036;5.906;2023-07-28T03:19:11;19.90;99.90
42031;DHT22;27709;52.036;5.906;2023-07-28T03:21:36;19.90;99.90
42031;DHT22;27709;52.036;5.906;2023-07-28T03:24:02;19.90;99.90
42031;DHT22;27709;52.036;5.906;2023-07-28T03:26:27;19.90;99.90
42031;DHT22;27709;52.036;5.906;2023-07-28T03:28:53;19.90;99.90
42031;DHT22;27709;52.036;5.906;2023-07-28T03:31:19;19.90;99.90
42031;DHT22;27709;52.036;5.906;2023-07-28T03:33:44;19.90;99.90
42031;DHT22;27709;52.036;5.906;2023-07-28T03:36:09;19.90;99.90
42031;DHT22;27709;52.036;5.906;2023-07-28T03:38:35;20.00;99.90
42031;DHT22;27709;52.036;5.906;2023-07-28T03:41:00;20.00;99.90
42031;DHT22;27709;52.036;5.906;2023-07-28T03:43:26;20.00;99.90
42031;DHT22;27709;52.036;5.906;2023-07-28T03:45:52;20.00;99.90
42031;DHT22;27709;52.036;5.906;2023-07-28T03:48:17;19.90;99.90
42031;DHT22;27709;52.036;5.906;2023-07-28T03:50:43;20.00;99.90
42031;DHT22;27709;52.036;5.906;2023-07-28T03:53:08;20.00;99.90
42031;DHT22;27709;52.036;5.906;2023-07-28T03:55:35;20.00;99.90
42031;DHT22;27709;52.036;5.906;2023-07-28T03:58:00;20.00;99.90
42031;DHT22;27709;52.036;5.906;2023-07-28T04:00:26;20.00;99.90
42031;DHT22;27709;52.036;5.906;2023-07-28T04:02:51;20.00;99.90
42031;DHT22;27709;52.036;5.906;2023-07-28T04:05:17;20.00;99.90
42031;DHT22;27709;52.036;5.906;2023-07-28T04:07:42;20.00;99.90
42031;DHT22;27709;52.036;5.906;2023-07-28T04:10:08;20.00;99.90
42031;DHT22;27709;52.036;5.906;2023-07-28T04:12:34;20.00;99.90
42031;DHT22;27709;52.036;5.906;2023-07-28T04:14:59;19.90;99.90
42031;DHT22;27709;52.036;5.906;2023-07-28T04:17:25;19.90;99.90
42031;DHT22;27709;52.036;5.906;2023-07-28T04:19:50;20.00;99.90
42031;DHT22;27709;52.036;5.906;2023-07-28T04:22:16;20.00;99.90
42031;DHT22;27709;52.036;5.906;2023-07-28T04:24:47;20.00;99.90
42031;DHT22;27709;52.036;5.906;2023-07-28T04:27:14;20.00;99.90
42031;DHT22;27709;52.036;5.906;2023-07-28T04:29:39;20.00;99.90
42031;DHT22;27709;52.036;5.906;2023-07-28T04:32:05;20.00;99.90
42031;DHT22;27709;52.036;5.906;2023-07-28T04:34:34;20.00;99.90
42031;DHT22;27709;52.036;5.906;2023-07-28T04:37:00;20.00;99.90
42031;DHT22;27709;52.036;5.906;2023-07-28T04:39:25;20.00;99.90
42031;DHT22;27709;52.036;5.906;2023-07-28T04:41:51;20.00;99.90
42031;DHT22;27709;52.036;5.906;2023-07-28T04:44:17;20.10;99.90
42031;DHT22;27709;52.036;5.906;2023-07-28T04:46:43;20.00;99.90
42031;DHT22;27709;52.036;5.906;2023-07-28T04:49:09;20.10;99.90
42031;DHT22;27709;52.036;5.906;2023-07-28T04:51:34;20.10;99.90
42031;DHT22;27709;52.036;5.906;2023-07-28T04:54:00;20.10;99.90
42031;DHT22;27709;52.036;5.906;2023-07-28T04:56:25;20.10;99.90
42031;DHT22;27709;52.036;5.906;2023-07-28T04:58:51;20.10;99.90
42031;DHT22;27709;52.036;5.906;2023-07-28T05:01:16;20.10;99.90
42031;DHT22;27709;52.036;5.906;2023-07-28T05:03:42;20.10;99.90
42031;DHT22;27709;52.036;5.906;2023-07-28T05:06:07;20.10;99.90
42031;DHT22;27709;52.036;5.906;2023-07-28T05:08:33;20.10;99.90
42031;DHT22;27709;52.036;5.906;2023-07-28T05:10:58;20.10;99.90
42031;DHT22;27709;52.036;5.906;2023-07-28T05:13:24;20.20;99.90
42031;DHT22;27709;52.036;5.906;2023-07-28T05:15:49;20.10;99.90
42031;DHT22;27709;52.036;5.906;2023-07-28T05:18:15;20.10;99.90
42031;DHT22;27709;52.036;5.906;2023-07-28T05:20:40;20.10;99.90
42031;DHT22;27709;52.036;5.906;2023-07-28T05:23:06;20.10;99.90
42031;DHT22;27709;52.036;5.906;2023-07-28T05:25:31;20.10;99.90
42031;DHT22;27709;52.036;5.906;2023-07-28T05:27:57;20.10;99.90
42031;DHT22;27709;52.036;5.906;2023-07-28T05:30:22;20.10;99.90
42031;DHT22;27709;52.036;5.906;2023-07-28T05:32:48;20.10;99.90
42031;DHT22;27709;52.036;5.906;2023-07-28T05:35:15;20.10;99.90
42031;DHT22;27709;52.036;5.906;2023-07-28T05:37:40;20.10;99.90
42031;DHT22;27709;52.036;5.906;2023-07-28T05:40:06;20.20;99.90
42031;DHT22;27709;52.036;5.906;2023-07-28T05:42:32;20.10;99.90
42031;DHT22;27709;52.036;5.906;2023-07-28T05:44:59;20.10;99.90
42031;DHT22;27709;52.036;5.906;2023-07-28T05:47:24;20.10;99.90
42031;DHT22;27709;52.036;5.906;2023-07-28T05:49:51;20.10;99.90
42031;DHT22;27709;52.036;5.906;2023-07-28T05:52:19;20.20;99.90
42031;DHT22;27709;52.036;5.906;2023-07-28T05:54:44;20.20;99.90
42031;DHT22;27709;52.036;5.906;2023-07-28T05:57:10;20.20;99.90
42031;DHT22;27709;52.036;5.906;2023-07-28T05:59:36;20.20;99.90
42031;DHT22;27709;52.036;5.906;2023-07-28T06:02:01;20.20;99.90
42031;DHT22;27709;52.036;5.906;2023-07-28T06:04:27;20.20;99.90
42031;DHT22;27709;52.036;5.906;2023-07-28T06:06:53;20.20;99.90
42031;DHT22;27709;52.036;5.906;2023-07-28T06:09:18;20.20;99.90
42031;DHT22;27709;52.036;5.906;2023-07-28T06:11:44;20.20;99.90
42031;DHT22;27709;52.036;5.906;2023-07-28T06:14:09;20.20;99.90
42031;DHT22;27709;52.036;5.906;2023-07-28T06:16:36;20.30;99.90
42031;DHT22;27709;52.036;5.906;2023-07-28T06:19:01;20.30;99.90
42031;DHT22;27709;52.036;5.906;2023-07-28T06:21:27;20.40;99.90
42031;DHT22;27709;52.036;5.906;2023-07-28T06:24:13;20.40;99.90
42031;DHT22;27709;52.036;5.906;2023-07-28T06:26:42;20.50;99.90
42031;DHT22;27709;52.036;5.906;2023-07-28T06:29:09;20.50;99.90
42031;DHT22;27709;52.036;5.906;2023-07-28T06:31:50;20.50;99.90
42031;DHT22;27709;52.036;5.906;2023-07-28T06:34:15;20.50;99.90
42031;DHT22;27709;52.036;5.906;2023-07-28T06:36:41;20.60;99.90
42031;DHT22;27709;52.036;5.906;2023-07-28T06:39:06;20.60;99.90
42031;DHT22;27709;52.036;5.906;2023-07-28T06:41:32;20.60;99.90
42031;DHT22;27709;52.036;5.906;2023-07-28T06:43:58;20.50;99.90
42031;DHT22;27709;52.036;5.906;2023-07-28T06:46:23;20.50;99.90
42031;DHT22;27709;52.036;5.906;2023-07-28T06:48:49;20.40;99.90
42031;DHT22;27709;52.036;5.906;2023-07-28T06:51:19;20.40;99.90
42031;DHT22;27709;52.036;5.906;2023-07-28T06:53:44;20.40;99.90
42031;DHT22;27709;52.036;5.906;2023-07-28T06:56:10;20.50;99.90
42031;DHT22;27709;52.036;5.906;2023-07-28T06:58:37;20.50;99.90
42031;DHT22;27709;52.036;5.906;2023-07-28T07:01:02;20.60;99.90
42031;DHT22;27709;52.036;5.906;2023-07-28T07:03:28;20.70;99.90
42031;DHT22;27709;52.036;5.906;2023-07-28T07:05:54;20.70;99.90
42031;DHT22;27709;52.036;5.906;2023-07-28T07:08:20;20.70;99.90
42031;DHT22;27709;52.036;5.906;2023-07-28T07:10:49;20.70;99.90
42031;DHT22;27709;52.036;5.906;2023-07-28T07:13:18;20.70;99.90
42031;DHT22;27709;52.036;5.906;2023-07-28T07:15:44;20.70;99.90
42031;DHT22;27709;52.036;5.906;2023-07-28T07:18:10;20.70;99.90
42031;DHT22;27709;52.036;5.906;2023-07-28T07:20:37;20.70;99.90
42031;DHT22;27709;52.036;5.906;2023-07-28T07:23:06;20.70;99.90
42031;DHT22;27709;52.036;5.906;2023-07-28T07:25:33;20.70;99.90
42031;DHT22;27709;52.036;5.906;2023-07-28T07:28:00;20.70;99.90
42031;DHT22;27709;52.036;5.906;2023-07-28T07:30:25;20.70;99.90
42031;DHT22;27709;52.036;5.906;2023-07-28T07:32:51;20.70;99.90
42031;DHT22;27709;52.036;5.906;2023-07-28T07:35:17;20.80;99.90
42031;DHT22;27709;52.036;5.906;2023-07-28T07:37:42;20.80;99.90
42031;DHT22;27709;52.036;5.906;2023-07-28T07:40:22;20.90;99.90
42031;DHT22;27709;52.036;5.906;2023-07-28T07:42:49;20.90;99.90
42031;DHT22;27709;52.036;5.906;2023-07-28T07:45:15;20.80;99.90
42031;DHT22;27709;52.036;5.906;2023-07-28T07:47:41;20.80;99.90
42031;DHT22;27709;52.036;5.906;2023-07-28T07:50:07;20.90;99.90
42031;DHT22;27709;52.036;5.906;2023-07-28T07:52:37;20.90;99.90
42031;DHT22;27709;52.036;5.906;2023-07-28T07:55:03;20.90;99.90
42031;DHT22;27709;52.036;5.906;2023-07-28T07:57:29;21.00;99.90
42031;DHT22;27709;52.036;5.906;2023-07-28T07:59:57;20.90;99.90
42031;DHT22;27709;52.036;5.906;2023-07-28T08:02:22;21.00;99.90
42031;DHT22;27709;52.036;5.906;2023-07-28T08:04:48;21.00;99.90
42031;DHT22;27709;52.036;5.906;2023-07-28T08:07:13;21.00;99.90
42031;DHT22;27709;52.036;5.906;2023-07-28T08:09:41;21.00;99.90
42031;DHT22;27709;52.036;5.906;2023-07-28T08:12:07;21.00;99.90
42031;DHT22;27709;52.036;5.906;2023-07-28T08:14:33;21.10;99.90
42031;DHT22;27709;52.036;5.906;2023-07-28T08:16:59;21.20;99.90
42031;DHT22;27709;52.036;5.906;2023-07-28T08:19:25;21.20;99.90
42031;DHT22;27709;52.036;5.906;2023-07-28T08:21:51;21.30;99.90
42031;DHT22;27709;52.036;5.906;2023-07-28T08:24:16;21.30;99.90
42031;DHT22;27709;52.036;5.906;2023-07-28T08:26:42;21.40;99.90
42031;DHT22;27709;52.036;5.906;2023-07-28T08:29:07;21.40;99.90
42031;DHT22;27709;52.036;5.906;2023-07-28T08:31:33;21.40;99.90
42031;DHT22;27709;52.036;5.906;2023-07-28T08:33:58;21.40;99.90
42031;DHT22;27709;52.036;5.906;2023-07-28T08:36:24;21.40;99.90
42031;DHT22;27709;52.036;5.906;2023-07-28T08:38:49;21.40;99.90
42031;DHT22;27709;52.036;5.906;2023-07-28T08:41:15;21.40;99.90
42031;DHT22;27709;52.036;5.906;2023-07-28T08:43:41;21.40;99.90
42031;DHT22;27709;52.036;5.906;2023-07-28T08:46:08;21.40;99.90
42031;DHT22;27709;52.036;5.906;2023-07-28T08:48:35;21.40;99.90
42031;DHT22;27709;52.036;5.906;2023-07-28T08:51:02;21.40;99.90
42031;DHT22;27709;52.036;5.906;2023-07-28T08:53:27;21.40;99.90
42031;DHT22;27709;52.036;5.906;2023-07-28T08:55:53;21.40;99.90
42031;DHT22;27709;52.036;5.906;2023-07-28T08:58:20;21.40;99.90
42031;DHT22;27709;52.036;5.906;2023-07-28T09:00:48;21.40;99.90
42031;DHT22;27709;52.036;5.906;2023-07-28T09:03:15;21.40;99.90
42031;DHT22;27709;52.036;5.906;2023-07-28T09:05:43;21.50;99.90
42031;DHT22;27709;52.036;5.906;2023-07-28T09:08:09;21.60;99.90
42031;DHT22;27709;52.036;5.906;2023-07-28T09:10:48;21.70;99.90
42031;DHT22;27709;52.036;5.906;2023-07-28T09:13:16;21.70;99.90
42031;DHT22;27709;52.036;5.906;2023-07-28T09:15:42;21.70;99.90
42031;DHT22;27709;52.036;5.906;2023-07-28T09:18:13;21.80;99.90
42031;DHT22;27709;52.036;5.906;2023-07-28T09:20:41;21.90;99.90
42031;DHT22;27709;52.036;5.906;2023-07-28T09:23:08;21.90;99.90
42031;DHT22;27709;52.036;5.906;2023-07-28T09:25:35;21.90;99.90
42031;DHT22;27709;52.036;5.906;2023-07-28T09:28:01;21.90;99.90
42031;DHT22;27709;52.036;5.906;2023-07-28T09:30:29;21.90;99.90
42031;DHT22;27709;52.036;5.906;2023-07-28T09:33:08;21.90;99.90
42031;DHT22;27709;52.036;5.906;2023-07-28T09:35:34;22.00;99.90
42031;DHT22;27709;52.036;5.906;2023-07-28T09:38:00;22.10;99.90
42031;DHT22;27709;52.036;5.906;2023-07-28T09:40:26;22.30;99.90
42031;DHT22;27709;52.036;5.906;2023-07-28T09:42:52;22.70;99.90
42031;DHT22;27709;52.036;5.906;2023-07-28T09:45:20;23.60;99.90
42031;DHT22;27709;52.036;5.906;2023-07-28T09:47:54;24.10;99.90
42031;DHT22;27709;52.036;5.906;2023-07-28T09:50:21;24.90;99.90
42031;DHT22;27709;52.036;5.906;2023-07-28T09:52:50;25.80;99.90
42031;DHT22;27709;52.036;5.906;2023-07-28T09:55:39;25.80;99.90
42031;DHT22;27709;52.036;5.906;2023-07-28T09:58:10;26.10;99.90
42031;DHT22;27709;52.036;5.906;2023-07-28T10:00:37;26.20;99.60
42031;DHT22;27709;52.036;5.906;2023-07-28T10:03:04;26.30;99.50
42031;DHT22;27709;52.036;5.906;2023-07-28T10:05:31;26.30;99.70
42031;DHT22;27709;52.036;5.906;2023-07-28T10:08:01;26.40;99.10
42031;DHT22;27709;52.036;5.906;2023-07-28T10:10:28;26.60;98.70
42031;DHT22;27709;52.036;5.906;2023-07-28T10:12:57;27.10;98.30
42031;DHT22;27709;52.036;5.906;2023-07-28T10:15:29;27.60;98.20
42031;DHT22;27709;52.036;5.906;2023-07-28T10:17:56;27.80;97.60
42031;DHT22;27709;52.036;5.906;2023-07-28T10:20:33;28.10;97.90
42031;DHT22;27709;52.036;5.906;2023-07-28T10:23:23;28.20;96.10
42031;DHT22;27709;52.036;5.906;2023-07-28T10:25:57;27.70;95.80
42031;DHT22;27709;52.036;5.906;2023-07-28T10:28:37;27.70;97.00
42031;DHT22;27709;52.036;5.906;2023-07-28T10:31:11;27.80;96.30
42031;DHT22;27709;52.036;5.906;2023-07-28T10:33:38;27.70;96.40
42031;DHT22;27709;52.036;5.906;2023-07-28T10:41:29;27.00;96.00
42031;DHT22;27709;52.036;5.906;2023-07-28T10:43:58;26.60;96.60
42031;DHT22;27709;52.036;5.906;2023-07-28T10:46:23;26.40;96.90
42031;DHT22;27709;52.036;5.906;2023-07-28T10:48:49;26.20;96.60
42031;DHT22;27709;52.036;5.906;2023-07-28T10:51:26;26.20;97.40
42031;DHT22;27709;52.036;5.906;2023-07-28T10:53:57;26.50;96.60
42031;DHT22;27709;52.036;5.906;2023-07-28T10:56:24;26.70;96.20
42031;DHT22;27709;52.036;5.906;2023-07-28T10:59:00;26.70;96.50
42031;DHT22;27709;52.036;5.906;2023-07-28T11:01:36;26.40;96.60
42031;DHT22;27709;52.036;5.906;2023-07-28T11:04:20;26.10;96.80
42031;DHT22;27709;52.036;5.906;2023-07-28T11:06:48;26.00;97.40
42031;DHT22;27709;52.036;5.906;2023-07-28T11:09:16;26.20;97.30
42031;DHT22;27709;52.036;5.906;2023-07-28T11:11:43;26.30;96.30
42031;DHT22;27709;52.036;5.906;2023-07-28T11:14:10;26.50;96.70
42031;DHT22;27709;52.036;5.906;2023-07-28T11:16:41;26.70;96.50
42031;DHT22;27709;52.036;5.906;2023-07-28T11:19:13;26.70;95.90
42031;DHT22;27709;52.036;5.906;2023-07-28T11:21:42;26.80;96.50
42031;DHT22;27709;52.036;5.906;2023-07-28T11:24:09;27.00;96.40
42031;DHT22;27709;52.036;5.906;2023-07-28T11:26:35;27.00;96.60
42031;DHT22;27709;52.036;5.906;2023-07-28T11:29:01;27.00;95.50
42031;DHT22;27709;52.036;5.906;2023-07-28T11:31:27;26.90;95.90
42031;DHT22;27709;52.036;5.906;2023-07-28T11:33:53;27.00;96.20
42031;DHT22;27709;52.036;5.906;2023-07-28T11:36:25;27.00;95.20
42031;DHT22;27709;52.036;5.906;2023-07-28T11:38:51;26.90;95.40
42031;DHT22;27709;52.036;5.906;2023-07-28T11:41:19;26.70;94.50
42031;DHT22;27709;52.036;5.906;2023-07-28T11:43:49;26.60;94.60
42031;DHT22;27709;52.036;5.906;2023-07-28T11:46:41;26.60;94.40
42031;DHT22;27709;52.036;5.906;2023-07-28T11:49:17;26.70;94.80
42031;DHT22;27709;52.036;5.906;2023-07-28T11:51:50;26.60;95.20
42031;DHT22;27709;52.036;5.906;2023-07-28T11:54:18;26.80;95.20
42031;DHT22;27709;52.036;5.906;2023-07-28T11:56:48;26.90;95.10
42031;DHT22;27709;52.036;5.906;2023-07-28T11:59:19;27.10;95.30
42031;DHT22;27709;52.036;5.906;2023-07-28T12:04:37;27.70;95.00
42031;DHT22;27709;52.036;5.906;2023-07-28T12:09:52;27.80;94.00
42031;DHT22;27709;52.036;5.906;2023-07-28T12:12:19;27.80;93.80
42031;DHT22;27709;52.036;5.906;2023-07-28T12:14:45;27.70;93.60
42031;DHT22;27709;52.036;5.906;2023-07-28T12:17:19;27.60;93.90
42031;DHT22;27709;52.036;5.906;2023-07-28T12:20:14;27.60;93.70
42031;DHT22;27709;52.036;5.906;2023-07-28T12:22:41;27.60;93.30
42031;DHT22;27709;52.036;5.906;2023-07-28T12:25:07;27.60;93.80
42031;DHT22;27709;52.036;5.906;2023-07-28T12:27:33;27.70;94.50
42031;DHT22;27709;52.036;5.906;2023-07-28T12:30:03;27.80;94.40
42031;DHT22;27709;52.036;5.906;2023-07-28T12:32:34;27.80;93.70
42031;DHT22;27709;52.036;5.906;2023-07-28T12:34:59;27.90;93.80
42031;DHT22;27709;52.036;5.906;2023-07-28T12:37:25;28.00;93.80
42031;DHT22;27709;52.036;5.906;2023-07-28T12:39:52;28.20;93.70
42031;DHT22;27709;52.036;5.906;2023-07-28T12:42:18;28.20;93.10
42031;DHT22;27709;52.036;5.906;2023-07-28T12:44:45;28.20;93.20
42031;DHT22;27709;52.036;5.906;2023-07-28T12:47:11;28.10;93.30
42031;DHT22;27709;52.036;5.906;2023-07-28T12:49:36;28.00;93.20
42031;DHT22;27709;52.036;5.906;2023-07-28T12:52:04;28.00;93.40
42031;DHT22;27709;52.036;5.906;2023-07-28T12:54:32;27.90;93.40
42031;DHT22;27709;52.036;5.906;2023-07-28T12:56:58;27.80;93.00
42031;DHT22;27709;52.036;5.906;2023-07-28T12:59:24;27.70;93.50
42031;DHT22;27709;52.036;5.906;2023-07-28T13:01:49;27.70;93.50
42031;DHT22;27709;52.036;5.906;2023-07-28T13:04:15;27.60;93.90
42031;DHT22;27709;52.036;5.906;2023-07-28T13:06:40;27.50;93.70
42031;DHT22;27709;52.036;5.906;2023-07-28T13:09:07;27.30;93.90
42031;DHT22;27709;52.036;5.906;2023-07-28T13:11:33;27.30;94.00
42031;DHT22;27709;52.036;5.906;2023-07-28T13:13:59;27.30;92.90
42031;DHT22;27709;52.036;5.906;2023-07-28T13:16:25;27.40;93.50
42031;DHT22;27709;52.036;5.906;2023-07-28T13:18:53;27.40;93.10
42031;DHT22;27709;52.036;5.906;2023-07-28T13:21:18;27.40;93.50
42031;DHT22;27709;52.036;5.906;2023-07-28T13:23:44;27.30;93.10
42031;DHT22;27709;52.036;5.906;2023-07-28T13:26:10;27.30;93.30
42031;DHT22;27709;52.036;5.906;2023-07-28T13:28:35;27.30;93.50
42031;DHT22;27709;52.036;5.906;2023-07-28T13:31:02;27.30;94.00
42031;DHT22;27709;52.036;5.906;2023-07-28T13:33:28;27.50;93.90
42031;DHT22;27709;52.036;5.906;2023-07-28T13:35:54;27.70;93.80
42031;DHT22;27709;52.036;5.906;2023-07-28T13:38:19;27.70;93.50
42031;DHT22;27709;52.036;5.906;2023-07-28T13:40:45;27.70;93.40
42031;DHT22;27709;52.036;5.906;2023-07-28T13:43:16;27.80;92.80
42031;DHT22;27709;52.036;5.906;2023-07-28T13:45:42;27.80;92.80
42031;DHT22;27709;52.036;5.906;2023-07-28T13:48:08;27.70;92.90
42031;DHT22;27709;52.036;5.906;2023-07-28T13:50:33;27.70;93.60
42031;DHT22;27709;52.036;5.906;2023-07-28T13:52:59;27.70;93.20
42031;DHT22;27709;52.036;5.906;2023-07-28T13:55:24;27.40;92.90
42031;DHT22;27709;52.036;5.906;2023-07-28T13:57:50;27.20;92.80
42031;DHT22;27709;52.036;5.906;2023-07-28T14:00:16;27.20;92.50
42031;DHT22;27709;52.036;5.906;2023-07-28T14:02:41;27.10;92.60
42031;DHT22;27709;52.036;5.906;2023-07-28T14:05:07;27.20;92.80
42031;DHT22;27709;52.036;5.906;2023-07-28T14:07:33;27.10;92.90
42031;DHT22;27709;52.036;5.906;2023-07-28T14:10:00;27.20;93.40
42031;DHT22;27709;52.036;5.906;2023-07-28T14:12:25;27.40;92.50
42031;DHT22;27709;52.036;5.906;2023-07-28T14:14:51;27.50;92.00
42031;DHT22;27709;52.036;5.906;2023-07-28T14:17:17;27.60;91.60
42031;DHT22;27709;52.036;5.906;2023-07-28T14:19:44;27.60;92.10
42031;DHT22;27709;52.036;5.906;2023-07-28T14:22:09;27.70;92.00
42031;DHT22;27709;52.036;5.906;2023-07-28T14:24:35;27.70;92.00
42031;DHT22;27709;52.036;5.906;2023-07-28T14:27:01;27.80;91.90
42031;DHT22;27709;52.036;5.906;2023-07-28T14:29:26;27.90;92.00
42031;DHT22;27709;52.036;5.906;2023-07-28T14:31:52;28.00;92.30
42031;DHT22;27709;52.036;5.906;2023-07-28T14:34:17;27.90;91.90
42031;DHT22;27709;52.036;5.906;2023-07-28T14:36:43;27.70;91.30
42031;DHT22;27709;52.036;5.906;2023-07-28T14:39:09;27.60;91.30
42031;DHT22;27709;52.036;5.906;2023-07-28T14:41:35;27.60;91.40
42031;DHT22;27709;52.036;5.906;2023-07-28T14:44:01;27.70;91.20
42031;DHT22;27709;52.036;5.906;2023-07-28T14:46:26;27.80;91.10
42031;DHT22;27709;52.036;5.906;2023-07-28T14:48:53;27.80;91.50
42031;DHT22;27709;52.036;5.906;2023-07-28T14:51:18;27.60;91.10
42031;DHT22;27709;52.036;5.906;2023-07-28T14:53:44;27.40;91.40
42031;DHT22;27709;52.036;5.906;2023-07-28T14:56:13;27.30;91.40
42031;DHT22;27709;52.036;5.906;2023-07-28T14:58:39;27.30;92.00
42031;DHT22;27709;52.036;5.906;2023-07-28T15:01:09;27.20;91.50
42031;DHT22;27709;52.036;5.906;2023-07-28T15:03:36;27.00;91.50
42031;DHT22;27709;52.036;5.906;2023-07-28T15:06:02;26.80;92.10
42031;DHT22;27709;52.036;5.906;2023-07-28T15:08:28;26.80;91.60
42031;DHT22;27709;52.036;5.906;2023-07-28T15:10:55;26.70;92.30
42031;DHT22;27709;52.036;5.906;2023-07-28T15:13:20;26.70;92.50
42031;DHT22;27709;52.036;5.906;2023-07-28T15:15:46;26.80;92.70
42031;DHT22;27709;52.036;5.906;2023-07-28T15:18:12;26.80;92.40
42031;DHT22;27709;52.036;5.906;2023-07-28T15:20:39;26.90;92.50
42031;DHT22;27709;52.036;5.906;2023-07-28T15:23:05;26.80;92.70
42031;DHT22;27709;52.036;5.906;2023-07-28T15:25:30;26.80;92.70
42031;DHT22;27709;52.036;5.906;2023-07-28T15:27:56;27.00;92.70
42031;DHT22;27709;52.036;5.906;2023-07-28T15:30:21;27.10;92.50
42031;DHT22;27709;52.036;5.906;2023-07-28T15:32:47;27.10;92.10
42031;DHT22;27709;52.036;5.906;2023-07-28T15:35:14;27.10;92.10
42031;DHT22;27709;52.036;5.906;2023-07-28T15:37:39;26.80;92.30
42031;DHT22;27709;52.036;5.906;2023-07-28T15:40:05;26.70;92.50
42031;DHT22;27709;52.036;5.906;2023-07-28T15:42:31;26.60;92.90
42031;DHT22;27709;52.036;5.906;2023-07-28T15:44:57;26.50;93.20